sensor_id;sensor_type;location;lat;lon;timestamp;P1;durP1;ratioP1;P2;durP2;ratioP2
52894;SDS011;38759;53.396;6.722;2023-07-20T00:01:04;1.58;;;0.90;;
52894;SDS011;38759;53.396;6.722;2023-07-20T00:03:29;5.90;;;1.20;;
52894;SDS011;38759;53.396;6.722;2023-07-20T00:05:55;7.75;;;1.30;;
52894;SDS011;38759;53.396;6.722;2023-07-20T00:08:21;3.60;;;0.98;;
52894;SDS011;38759;53.396;6.722;2023-07-20T00:10:46;4.90;;;0.90;;
52894;SDS011;38759;53.396;6.722;2023-07-20T00:13:12;1.48;;;1.00;;
52894;SDS011;38759;53.396;6.722;2023-07-20T00:15:38;6.68;;;1.40;;
52894;SDS011;38759;53.396;6.722;2023-07-20T00:18:04;2.47;;;0.85;;
52894;SDS011;38759;53.396;6.722;2023-07-20T00:20:30;11.05;;;1.10;;
52894;SDS011;38759;53.396;6.722;2023-07-20T00:22:56;4.82;;;1.00;;
52894;SDS011;38759;53.396;6.722;2023-07-20T00:25:23;13.00;;;1.23;;
52894;SDS011;38759;53.396;6.722;2023-07-20T00:27:48;5.22;;;1.30;;
52894;SDS011;38759;53.396;6.722;2023-07-20T00:30:14;5.65;;;1.23;;
52894;SDS011;38759;53.396;6.722;2023-07-20T00:32:41;10.52;;;1.30;;
52894;SDS011;38759;53.396;6.722;2023-07-20T00:35:07;3.15;;;1.10;;
52894;SDS011;38759;53.396;6.722;2023-07-20T00:37:33;11.65;;;1.20;;
52894;SDS011;38759;53.396;6.722;2023-07-20T00:39:59;8.68;;;1.20;;
52894;SDS011;38759;53.396;6.722;2023-07-20T00:42:24;11.80;;;1.20;;
52894;SDS011;38759;53.396;6.722;2023-07-20T00:44:50;6.65;;;1.10;;
52894;SDS011;38759;53.396;6.722;2023-07-20T00:47:16;7.00;;;1.15;;
52894;SDS011;38759;53.396;6.722;2023-07-20T00:49:41;7.82;;;1.85;;
52894;SDS011;38759;53.396;6.722;2023-07-20T00:52:08;2.65;;;0.93;;
52894;SDS011;38759;53.396;6.722;2023-07-20T00:54:37;6.35;;;1.27;;
52894;SDS011;38759;53.396;6.722;2023-07-20T00:57:02;8.45;;;1.30;;
52894;SDS011;38759;53.396;6.722;2023-07-20T00:59:29;2.03;;;0.88;;
52894;SDS011;38759;53.396;6.722;2023-07-20T01:01:55;3.00;;;0.82;;
52894;SDS011;38759;53.396;6.722;2023-07-20T01:04:20;12.95;;;1.30;;
52894;SDS011;38759;53.396;6.722;2023-07-20T01:09:34;3.08;;;1.25;;
52894;SDS011;38759;53.396;6.722;2023-07-20T01:14:48;11.35;;;1.20;;
52894;SDS011;38759;53.396;6.722;2023-07-20T01:17:14;14.60;;;1.17;;
52894;SDS011;38759;53.396;6.722;2023-07-20T01:19:40;6.72;;;1.10;;
52894;SDS011;38759;53.396;6.722;2023-07-20T01:25:12;5.68;;;0.90;;
52894;SDS011;38759;53.396;6.722;2023-07-20T01:33:19;7.15;;;1.17;;
52894;SDS011;38759;53.396;6.722;2023-07-20T01:35:50;6.43;;;1.35;;
52894;SDS011;38759;53.396;6.722;2023-07-20T01:38:21;10.27;;;1.00;;
52894;SDS011;38759;53.396;6.722;2023-07-20T01:40:49;13.88;;;1.20;;
52894;SDS011;38759;53.396;6.722;2023-07-20T01:43:15;9.70;;;1.25;;
52894;SDS011;38759;53.396;6.722;2023-07-20T01:45:41;12.40;;;1.25;;
52894;SDS011;38759;53.396;6.722;2023-07-20T01:48:07;10.27;;;1.42;;
52894;SDS011;38759;53.396;6.722;2023-07-20T01:50:32;8.20;;;1.25;;
52894;SDS011;38759;53.396;6.722;2023-07-20T01:52:59;8.90;;;1.38;;
52894;SDS011;38759;53.396;6.722;2023-07-20T01:55:25;10.63;;;1.40;;
52894;SDS011;38759;53.396;6.722;2023-07-20T01:57:51;13.20;;;1.35;;
52894;SDS011;38759;53.396;6.722;2023-07-20T02:00:17;7.18;;;1.00;;
52894;SDS011;38759;53.396;6.722;2023-07-20T02:02:46;9.48;;;1.10;;
52894;SDS011;38759;53.396;6.722;2023-07-20T02:05:12;9.02;;;1.23;;
52894;SDS011;38759;53.396;6.722;2023-07-20T02:07:37;2.42;;;1.10;;
52894;SDS011;38759;53.396;6.722;2023-07-20T02:10:03;8.65;;;1.35;;
52894;SDS011;38759;53.396;6.722;2023-07-20T02:12:29;19.63;;;1.33;;
52894;SDS011;38759;53.396;6.722;2023-07-20T02:14:55;6.30;;;1.42;;
52894;SDS011;38759;53.396;6.722;2023-07-20T02:17:20;9.80;;;1.20;;
52894;SDS011;38759;53.396;6.722;2023-07-20T02:19:46;13.98;;;1.65;;
52894;SDS011;38759;53.396;6.722;2023-07-20T02:22:15;5.97;;;1.83;;
52894;SDS011;38759;53.396;6.722;2023-07-20T02:24:41;11.82;;;1.23;;
52894;SDS011;38759;53.396;6.722;2023-07-20T02:27:07;4.78;;;1.02;;
52894;SDS011;38759;53.396;6.722;2023-07-20T02:29:33;7.75;;;1.30;;
52894;SDS011;38759;53.396;6.722;2023-07-20T02:31:59;14.57;;;1.45;;
52894;SDS011;38759;53.396;6.722;2023-07-20T02:34:24;9.80;;;1.20;;
52894;SDS011;38759;53.396;6.722;2023-07-20T02:36:50;10.60;;;1.67;;
52894;SDS011;38759;53.396;6.722;2023-07-20T02:39:16;28.50;;;1.40;;
52894;SDS011;38759;53.396;6.722;2023-07-20T02:41:41;7.45;;;1.20;;
52894;SDS011;38759;53.396;6.722;2023-07-20T02:44:07;10.77;;;1.10;;
52894;SDS011;38759;53.396;6.722;2023-07-20T02:46:33;14.07;;;1.45;;
52894;SDS011;38759;53.396;6.722;2023-07-20T02:49:00;8.93;;;1.15;;
52894;SDS011;38759;53.396;6.722;2023-07-20T02:51:26;4.15;;;1.10;;
52894;SDS011;38759;53.396;6.722;2023-07-20T02:53:52;2.47;;;0.75;;
52894;SDS011;38759;53.396;6.722;2023-07-20T02:56:17;8.85;;;1.30;;
52894;SDS011;38759;53.396;6.722;2023-07-20T02:58:43;3.70;;;1.05;;
52894;SDS011;38759;53.396;6.722;2023-07-20T03:01:09;1.50;;;0.93;;
52894;SDS011;38759;53.396;6.722;2023-07-20T03:03:38;6.28;;;1.20;;
52894;SDS011;38759;53.396;6.722;2023-07-20T03:06:04;7.57;;;1.48;;
52894;SDS011;38759;53.396;6.722;2023-07-20T03:08:30;13.20;;;1.23;;
52894;SDS011;38759;53.396;6.722;2023-07-20T03:10:56;6.78;;;1.30;;
52894;SDS011;38759;53.396;6.722;2023-07-20T03:13:21;7.60;;;1.30;;
52894;SDS011;38759;53.396;6.722;2023-07-20T03:15:49;12.88;;;1.60;;
52894;SDS011;38759;53.396;6.722;2023-07-20T03:18:14;9.43;;;1.30;;
52894;SDS011;38759;53.396;6.722;2023-07-20T03:20:40;4.78;;;1.27;;
52894;SDS011;38759;53.396;6.722;2023-07-20T03:23:06;1.88;;;1.08;;
52894;SDS011;38759;53.396;6.722;2023-07-20T03:25:32;5.18;;;2.35;;
52894;SDS011;38759;53.396;6.722;2023-07-20T03:27:58;8.18;;;1.40;;
52894;SDS011;38759;53.396;6.722;2023-07-20T03:30:24;11.13;;;1.52;;
52894;SDS011;38759;53.396;6.722;2023-07-20T03:32:50;6.68;;;1.50;;
52894;SDS011;38759;53.396;6.722;2023-07-20T03:35:16;9.93;;;1.67;;
52894;SDS011;38759;53.396;6.722;2023-07-20T03:37:42;5.43;;;1.35;;
52894;SDS011;38759;53.396;6.722;2023-07-20T03:40:08;11.43;;;1.50;;
52894;SDS011;38759;53.396;6.722;2023-07-20T03:42:35;9.57;;;1.70;;
52894;SDS011;38759;53.396;6.722;2023-07-20T03:45:01;22.60;;;2.13;;
52894;SDS011;38759;53.396;6.722;2023-07-20T03:47:28;25.90;;;2.30;;
52894;SDS011;38759;53.396;6.722;2023-07-20T03:49:53;18.83;;;2.20;;
52894;SDS011;38759;53.396;6.722;2023-07-20T03:52:19;5.53;;;1.40;;
52894;SDS011;38759;53.396;6.722;2023-07-20T03:54:45;15.02;;;2.17;;
52894;SDS011;38759;53.396;6.722;2023-07-20T03:57:10;10.82;;;2.00;;
52894;SDS011;38759;53.396;6.722;2023-07-20T03:59:39;20.13;;;1.80;;
52894;SDS011;38759;53.396;6.722;2023-07-20T04:02:09;5.68;;;1.50;;
52894;SDS011;38759;53.396;6.722;2023-07-20T04:04:35;4.60;;;1.08;;
52894;SDS011;38759;53.396;6.722;2023-07-20T04:07:00;6.43;;;1.40;;
52894;SDS011;38759;53.396;6.722;2023-07-20T04:09:26;7.57;;;1.00;;
52894;SDS011;38759;53.396;6.722;2023-07-20T04:11:52;5.53;;;1.30;;
52894;SDS011;38759;53.396;6.722;2023-07-20T04:14:17;4.25;;;1.30;;
52894;SDS011;38759;53.396;6.722;2023-07-20T04:16:45;11.43;;;1.20;;
52894;SDS011;38759;53.396;6.722;2023-07-20T04:19:12;2.72;;;0.95;;
52894;SDS011;38759;53.396;6.722;2023-07-20T04:21:40;3.60;;;0.90;;
52894;SDS011;38759;53.396;6.722;2023-07-20T04:24:07;6.57;;;1.17;;
52894;SDS011;38759;53.396;6.722;2023-07-20T04:26:32;5.82;;;1.67;;
52894;SDS011;38759;53.396;6.722;2023-07-20T04:28:58;5.82;;;0.90;;
52894;SDS011;38759;53.396;6.722;2023-07-20T04:31:26;6.63;;;1.00;;
52894;SDS011;38759;53.396;6.722;2023-07-20T04:33:52;3.42;;;0.70;;
52894;SDS011;38759;53.396;6.722;2023-07-20T04:36:18;3.75;;;1.40;;
52894;SDS011;38759;53.396;6.722;2023-07-20T04:38:47;5.85;;;1.27;;
52894;SDS011;38759;53.396;6.722;2023-07-20T04:41:13;4.85;;;1.10;;
52894;SDS011;38759;53.396;6.722;2023-07-20T04:43:43;5.82;;;1.20;;
52894;SDS011;38759;53.396;6.722;2023-07-20T04:46:09;8.32;;;1.08;;
52894;SDS011;38759;53.396;6.722;2023-07-20T04:48:35;3.15;;;1.02;;
52894;SDS011;38759;53.396;6.722;2023-07-20T04:51:02;1.20;;;1.10;;
52894;SDS011;38759;53.396;6.722;2023-07-20T04:53:28;1.25;;;0.80;;
52894;SDS011;38759;53.396;6.722;2023-07-20T04:55:54;5.82;;;1.08;;
52894;SDS011;38759;53.396;6.722;2023-07-20T04:58:20;5.03;;;1.30;;
52894;SDS011;38759;53.396;6.722;2023-07-20T05:00:50;1.83;;;1.05;;
52894;SDS011;38759;53.396;6.722;2023-07-20T05:03:16;6.22;;;1.20;;
52894;SDS011;38759;53.396;6.722;2023-07-20T05:05:42;3.83;;;1.10;;
52894;SDS011;38759;53.396;6.722;2023-07-20T05:08:08;5.68;;;1.10;;
52894;SDS011;38759;53.396;6.722;2023-07-20T05:10:34;4.43;;;1.02;;
52894;SDS011;38759;53.396;6.722;2023-07-20T05:12:59;5.70;;;1.38;;
52894;SDS011;38759;53.396;6.722;2023-07-20T05:15:25;6.57;;;1.20;;
52894;SDS011;38759;53.396;6.722;2023-07-20T05:17:51;7.93;;;1.40;;
52894;SDS011;38759;53.396;6.722;2023-07-20T05:20:16;2.25;;;1.27;;
52894;SDS011;38759;53.396;6.722;2023-07-20T05:22:42;4.20;;;1.30;;
52894;SDS011;38759;53.396;6.722;2023-07-20T05:25:09;4.60;;;1.10;;
52894;SDS011;38759;53.396;6.722;2023-07-20T05:27:36;4.47;;;1.20;;
52894;SDS011;38759;53.396;6.722;2023-07-20T05:30:02;3.25;;;1.30;;
52894;SDS011;38759;53.396;6.722;2023-07-20T05:32:29;9.38;;;1.30;;
52894;SDS011;38759;53.396;6.722;2023-07-20T05:34:55;4.20;;;1.20;;
52894;SDS011;38759;53.396;6.722;2023-07-20T05:37:21;4.43;;;1.75;;
52894;SDS011;38759;53.396;6.722;2023-07-20T05:39:46;6.57;;;1.50;;
52894;SDS011;38759;53.396;6.722;2023-07-20T05:42:12;3.35;;;1.40;;
52894;SDS011;38759;53.396;6.722;2023-07-20T05:44:39;4.90;;;1.65;;
52894;SDS011;38759;53.396;6.722;2023-07-20T05:47:05;2.78;;;1.48;;
52894;SDS011;38759;53.396;6.722;2023-07-20T05:49:31;3.40;;;1.80;;
52894;SDS011;38759;53.396;6.722;2023-07-20T05:51:56;10.20;;;2.38;;
52894;SDS011;38759;53.396;6.722;2023-07-20T05:54:25;6.95;;;1.90;;
52894;SDS011;38759;53.396;6.722;2023-07-20T05:56:51;7.38;;;1.55;;
52894;SDS011;38759;53.396;6.722;2023-07-20T05:59:18;5.47;;;2.00;;
52894;SDS011;38759;53.396;6.722;2023-07-20T06:01:45;6.13;;;2.05;;
52894;SDS011;38759;53.396;6.722;2023-07-20T06:04:12;5.88;;;2.22;;
52894;SDS011;38759;53.396;6.722;2023-07-20T06:06:37;3.88;;;1.95;;
52894;SDS011;38759;53.396;6.722;2023-07-20T06:09:03;7.45;;;2.03;;
52894;SDS011;38759;53.396;6.722;2023-07-20T06:11:30;10.07;;;2.20;;
52894;SDS011;38759;53.396;6.722;2023-07-20T06:13:56;4.75;;;2.17;;
52894;SDS011;38759;53.396;6.722;2023-07-20T06:16:22;8.18;;;2.65;;
52894;SDS011;38759;53.396;6.722;2023-07-20T06:18:48;9.88;;;2.38;;
52894;SDS011;38759;53.396;6.722;2023-07-20T06:21:13;8.18;;;2.42;;
52894;SDS011;38759;53.396;6.722;2023-07-20T06:23:39;7.32;;;3.22;;
52894;SDS011;38759;53.396;6.722;2023-07-20T06:26:06;5.07;;;2.78;;
52894;SDS011;38759;53.396;6.722;2023-07-20T06:28:32;8.52;;;2.78;;
52894;SDS011;38759;53.396;6.722;2023-07-20T06:30:59;11.10;;;3.10;;
52894;SDS011;38759;53.396;6.722;2023-07-20T06:33:28;11.00;;;2.65;;
52894;SDS011;38759;53.396;6.722;2023-07-20T06:35:54;6.60;;;2.30;;
52894;SDS011;38759;53.396;6.722;2023-07-20T06:38:22;5.45;;;2.10;;
52894;SDS011;38759;53.396;6.722;2023-07-20T06:40:48;6.88;;;2.53;;
52894;SDS011;38759;53.396;6.722;2023-07-20T06:43:14;7.80;;;2.08;;
52894;SDS011;38759;53.396;6.722;2023-07-20T06:45:41;15.63;;;2.70;;
52894;SDS011;38759;53.396;6.722;2023-07-20T06:48:10;5.82;;;2.25;;
52894;SDS011;38759;53.396;6.722;2023-07-20T06:50:35;6.93;;;1.80;;
52894;SDS011;38759;53.396;6.722;2023-07-20T06:53:01;6.95;;;2.17;;
52894;SDS011;38759;53.396;6.722;2023-07-20T06:55:29;10.63;;;2.20;;
52894;SDS011;38759;53.396;6.722;2023-07-20T06:57:55;7.22;;;2.00;;
52894;SDS011;38759;53.396;6.722;2023-07-20T07:00:20;6.13;;;1.80;;
52894;SDS011;38759;53.396;6.722;2023-07-20T07:02:46;6.60;;;1.88;;
52894;SDS011;38759;53.396;6.722;2023-07-20T07:05:12;4.50;;;1.60;;
52894;SDS011;38759;53.396;6.722;2023-07-20T07:07:40;8.60;;;1.75;;
52894;SDS011;38759;53.396;6.722;2023-07-20T07:10:05;5.50;;;1.20;;
52894;SDS011;38759;53.396;6.722;2023-07-20T07:12:32;3.63;;;1.30;;
52894;SDS011;38759;53.396;6.722;2023-07-20T07:14:57;8.05;;;1.33;;
52894;SDS011;38759;53.396;6.722;2023-07-20T07:17:23;11.05;;;1.90;;
52894;SDS011;38759;53.396;6.722;2023-07-20T07:19:49;5.38;;;1.60;;
52894;SDS011;38759;53.396;6.722;2023-07-20T07:22:21;5.95;;;1.67;;
52894;SDS011;38759;53.396;6.722;2023-07-20T07:24:47;7.53;;;1.63;;
52894;SDS011;38759;53.396;6.722;2023-07-20T07:27:13;8.60;;;1.52;;
52894;SDS011;38759;53.396;6.722;2023-07-20T07:29:41;6.50;;;1.42;;
52894;SDS011;38759;53.396;6.722;2023-07-20T07:32:09;5.25;;;1.50;;
52894;SDS011;38759;53.396;6.722;2023-07-20T07:34:36;2.67;;;1.10;;
52894;SDS011;38759;53.396;6.722;2023-07-20T07:37:02;5.45;;;1.40;;
52894;SDS011;38759;53.396;6.722;2023-07-20T07:39:29;5.55;;;1.75;;
52894;SDS011;38759;53.396;6.722;2023-07-20T07:41:55;12.35;;;1.70;;
52894;SDS011;38759;53.396;6.722;2023-07-20T07:44:21;5.90;;;1.10;;
52894;SDS011;38759;53.396;6.722;2023-07-20T07:46:47;6.60;;;1.10;;
52894;SDS011;38759;53.396;6.722;2023-07-20T07:49:12;8.07;;;1.25;;
52894;SDS011;38759;53.396;6.722;2023-07-20T07:51:38;4.35;;;1.00;;
52894;SDS011;38759;53.396;6.722;2023-07-20T07:54:04;4.43;;;1.30;;
52894;SDS011;38759;53.396;6.722;2023-07-20T07:56:29;4.25;;;1.17;;
52894;SDS011;38759;53.396;6.722;2023-07-20T07:58:55;4.10;;;1.13;;
52894;SDS011;38759;53.396;6.722;2023-07-20T08:01:21;3.42;;;0.80;;
52894;SDS011;38759;53.396;6.722;2023-07-20T08:03:47;9.63;;;1.15;;
52894;SDS011;38759;53.396;6.722;2023-07-20T08:06:13;5.97;;;1.23;;
52894;SDS011;38759;53.396;6.722;2023-07-20T08:08:39;4.32;;;0.90;;
52894;SDS011;38759;53.396;6.722;2023-07-20T08:11:05;4.63;;;1.15;;
52894;SDS011;38759;53.396;6.722;2023-07-20T08:13:31;2.45;;;0.85;;
52894;SDS011;38759;53.396;6.722;2023-07-20T08:15:57;3.47;;;1.20;;
52894;SDS011;38759;53.396;6.722;2023-07-20T08:18:23;2.25;;;0.98;;
52894;SDS011;38759;53.396;6.722;2023-07-20T08:20:49;3.53;;;1.02;;
52894;SDS011;38759;53.396;6.722;2023-07-20T08:23:15;1.85;;;0.77;;
52894;SDS011;38759;53.396;6.722;2023-07-20T08:25:41;4.47;;;0.95;;
52894;SDS011;38759;53.396;6.722;2023-07-20T08:28:13;4.05;;;1.15;;
52894;SDS011;38759;53.396;6.722;2023-07-20T08:30:44;2.13;;;0.95;;
52894;SDS011;38759;53.396;6.722;2023-07-20T08:33:12;1.80;;;0.90;;
52894;SDS011;38759;53.396;6.722;2023-07-20T08:35:38;6.35;;;1.25;;
52894;SDS011;38759;53.396;6.722;2023-07-20T08:38:04;9.43;;;1.35;;
52894;SDS011;38759;53.396;6.722;2023-07-20T08:40:31;3.53;;;0.98;;
52894;SDS011;38759;53.396;6.722;2023-07-20T08:42:58;3.67;;;0.93;;
52894;SDS011;38759;53.396;6.722;2023-07-20T08:45:25;6.82;;;1.08;;
52894;SDS011;38759;53.396;6.722;2023-07-20T08:47:58;6.18;;;0.80;;
52894;SDS011;38759;53.396;6.722;2023-07-20T08:50:25;4.72;;;0.90;;
52894;SDS011;38759;53.396;6.722;2023-07-20T08:52:52;5.88;;;0.90;;
52894;SDS011;38759;53.396;6.722;2023-07-20T08:55:19;3.38;;;0.80;;
52894;SDS011;38759;53.396;6.722;2023-07-20T08:57:48;7.30;;;0.82;;
52894;SDS011;38759;53.396;6.722;2023-07-20T09:00:15;4.95;;;1.10;;
52894;SDS011;38759;53.396;6.722;2023-07-20T09:02:45;4.82;;;0.70;;
52894;SDS011;38759;53.396;6.722;2023-07-20T09:05:12;2.80;;;0.70;;
52894;SDS011;38759;53.396;6.722;2023-07-20T09:07:42;4.95;;;0.77;;
52894;SDS011;38759;53.396;6.722;2023-07-20T09:10:08;6.93;;;0.82;;
52894;SDS011;38759;53.396;6.722;2023-07-20T09:12:35;7.65;;;1.00;;
52894;SDS011;38759;53.396;6.722;2023-07-20T09:15:02;4.65;;;0.75;;
52894;SDS011;38759;53.396;6.722;2023-07-20T09:17:28;3.38;;;0.93;;
52894;SDS011;38759;53.396;6.722;2023-07-20T09:19:54;4.68;;;1.13;;
52894;SDS011;38759;53.396;6.722;2023-07-20T09:22:20;2.83;;;0.70;;
52894;SDS011;38759;53.396;6.722;2023-07-20T09:24:46;3.70;;;1.20;;
52894;SDS011;38759;53.396;6.722;2023-07-20T09:27:11;4.95;;;0.90;;
52894;SDS011;38759;53.396;6.722;2023-07-20T09:29:47;2.03;;;0.93;;
52894;SDS011;38759;53.396;6.722;2023-07-20T09:32:22;2.20;;;0.65;;
52894;SDS011;38759;53.396;6.722;2023-07-20T09:34:51;2.90;;;0.90;;
52894;SDS011;38759;53.396;6.722;2023-07-20T09:37:23;2.33;;;0.80;;
52894;SDS011;38759;53.396;6.722;2023-07-20T09:39:51;2.92;;;1.00;;
52894;SDS011;38759;53.396;6.722;2023-07-20T09:42:17;2.78;;;0.80;;
52894;SDS011;38759;53.396;6.722;2023-07-20T09:44:43;5.03;;;1.15;;
52894;SDS011;38759;53.396;6.722;2023-07-20T09:47:09;3.58;;;0.60;;
52894;SDS011;38759;53.396;6.722;2023-07-20T09:49:39;1.00;;;0.70;;
52894;SDS011;38759;53.396;6.722;2023-07-20T09:52:05;5.10;;;0.68;;
52894;SDS011;38759;53.396;6.722;2023-07-20T09:54:33;3.22;;;0.80;;
52894;SDS011;38759;53.396;6.722;2023-07-20T09:56:59;1.67;;;0.60;;
52894;SDS011;38759;53.396;6.722;2023-07-20T09:59:27;3.25;;;0.68;;
52894;SDS011;38759;53.396;6.722;2023-07-20T10:01:53;6.07;;;0.98;;
52894;SDS011;38759;53.396;6.722;2023-07-20T10:04:23;1.38;;;0.60;;
52894;SDS011;38759;53.396;6.722;2023-07-20T10:06:50;3.78;;;1.42;;
52894;SDS011;38759;53.396;6.722;2023-07-20T10:09:19;2.53;;;0.93;;
52894;SDS011;38759;53.396;6.722;2023-07-20T10:11:52;5.75;;;1.15;;
52894;SDS011;38759;53.396;6.722;2023-07-20T10:14:22;2.67;;;0.88;;
52894;SDS011;38759;53.396;6.722;2023-07-20T10:16:51;1.15;;;0.60;;
52894;SDS011;38759;53.396;6.722;2023-07-20T10:22:14;1.98;;;0.70;;
52894;SDS011;38759;53.396;6.722;2023-07-20T10:24:44;6.35;;;1.02;;
52894;SDS011;38759;53.396;6.722;2023-07-20T10:27:12;6.20;;;1.27;;
52894;SDS011;38759;53.396;6.722;2023-07-20T10:29:38;5.72;;;1.00;;
52894;SDS011;38759;53.396;6.722;2023-07-20T10:32:05;3.50;;;0.85;;
52894;SDS011;38759;53.396;6.722;2023-07-20T10:34:32;5.90;;;1.13;;
52894;SDS011;38759;53.396;6.722;2023-07-20T10:36:59;4.00;;;0.95;;
52894;SDS011;38759;53.396;6.722;2023-07-20T10:39:25;3.50;;;1.23;;
52894;SDS011;38759;53.396;6.722;2023-07-20T10:44:28;5.82;;;1.17;;
52894;SDS011;38759;53.396;6.722;2023-07-20T10:46:58;5.93;;;1.20;;
52894;SDS011;38759;53.396;6.722;2023-07-20T10:49:25;3.05;;;1.15;;
52894;SDS011;38759;53.396;6.722;2023-07-20T10:51:58;7.07;;;1.08;;
52894;SDS011;38759;53.396;6.722;2023-07-20T10:56:51;4.63;;;1.15;;
52894;SDS011;38759;53.396;6.722;2023-07-20T10:59:20;2.40;;;1.10;;
52894;SDS011;38759;53.396;6.722;2023-07-20T11:02:05;2.03;;;0.90;;
52894;SDS011;38759;53.396;6.722;2023-07-20T11:04:42;2.58;;;0.80;;
52894;SDS011;38759;53.396;6.722;2023-07-20T11:07:08;4.68;;;1.27;;
52894;SDS011;38759;53.396;6.722;2023-07-20T11:09:35;2.92;;;1.13;;
52894;SDS011;38759;53.396;6.722;2023-07-20T11:15:10;3.33;;;1.08;;
52894;SDS011;38759;53.396;6.722;2023-07-20T11:17:29;2.85;;;0.77;;
52894;SDS011;38759;53.396;6.722;2023-07-20T11:19:56;6.85;;;1.23;;
52894;SDS011;38759;53.396;6.722;2023-07-20T11:22:23;3.92;;;1.33;;
52894;SDS011;38759;53.396;6.722;2023-07-20T11:24:48;3.75;;;1.00;;
52894;SDS011;38759;53.396;6.722;2023-07-20T11:27:14;2.30;;;1.10;;
52894;SDS011;38759;53.396;6.722;2023-07-20T11:29:40;8.25;;;1.02;;
52894;SDS011;38759;53.396;6.722;2023-07-20T11:32:06;1.73;;;0.88;;
52894;SDS011;38759;53.396;6.722;2023-07-20T11:34:33;3.53;;;1.00;;
52894;SDS011;38759;53.396;6.722;2023-07-20T11:37:00;2.90;;;0.70;;
52894;SDS011;38759;53.396;6.722;2023-07-20T11:39:27;2.50;;;0.93;;
52894;SDS011;38759;53.396;6.722;2023-07-20T11:41:55;1.73;;;0.60;;
52894;SDS011;38759;53.396;6.722;2023-07-20T11:44:28;1.88;;;0.50;;
52894;SDS011;38759;53.396;6.722;2023-07-20T11:47:04;2.97;;;0.73;;
52894;SDS011;38759;53.396;6.722;2023-07-20T11:49:37;3.60;;;1.00;;
52894;SDS011;38759;53.396;6.722;2023-07-20T11:52:05;3.17;;;0.90;;
52894;SDS011;38759;53.396;6.722;2023-07-20T11:54:35;4.90;;;1.00;;
52894;SDS011;38759;53.396;6.722;2023-07-20T11:57:04;2.42;;;0.85;;
52894;SDS011;38759;53.396;6.722;2023-07-20T11:59:33;4.50;;;1.08;;
52894;SDS011;38759;53.396;6.722;2023-07-20T12:02:02;2.47;;;0.95;;
52894;SDS011;38759;53.396;6.722;2023-07-20T12:04:28;6.38;;;1.02;;
52894;SDS011;38759;53.396;6.722;2023-07-20T12:06:56;3.53;;;1.00;;
52894;SDS011;38759;53.396;6.722;2023-07-20T12:09:21;5.40;;;1.10;;
52894;SDS011;38759;53.396;6.722;2023-07-20T12:11:49;3.63;;;0.85;;
52894;SDS011;38759;53.396;6.722;2023-07-20T12:14:15;3.75;;;1.00;;
52894;SDS011;38759;53.396;6.722;2023-07-20T12:16:41;3.33;;;0.80;;
52894;SDS011;38759;53.396;6.722;2023-07-20T12:19:13;3.63;;;1.15;;
52894;SDS011;38759;53.396;6.722;2023-07-20T12:21:39;3.20;;;0.80;;
52894;SDS011;38759;53.396;6.722;2023-07-20T12:24:07;2.00;;;1.05;;
52894;SDS011;38759;53.396;6.722;2023-07-20T12:26:35;6.30;;;1.50;;
52894;SDS011;38759;53.396;6.722;2023-07-20T12:29:00;5.55;;;1.00;;
52894;SDS011;38759;53.396;6.722;2023-07-20T12:31:28;3.80;;;0.82;;
52894;SDS011;38759;53.396;6.722;2023-07-20T12:33:55;3.60;;;1.10;;
52894;SDS011;38759;53.396;6.722;2023-07-20T12:36:22;3.95;;;0.93;;
52894;SDS011;38759;53.396;6.722;2023-07-20T12:38:49;2.80;;;0.77;;
52894;SDS011;38759;53.396;6.722;2023-07-20T12:41:15;2.95;;;0.90;;
52894;SDS011;38759;53.396;6.722;2023-07-20T12:43:41;4.53;;;1.10;;
52894;SDS011;38759;53.396;6.722;2023-07-20T12:46:07;12.15;;;1.35;;
52894;SDS011;38759;53.396;6.722;2023-07-20T12:48:35;4.63;;;1.10;;
52894;SDS011;38759;53.396;6.722;2023-07-20T12:51:06;7.22;;;1.25;;
52894;SDS011;38759;53.396;6.722;2023-07-20T12:53:32;4.60;;;0.90;;
52894;SDS011;38759;53.396;6.722;2023-07-20T12:55:59;4.47;;;1.30;;
52894;SDS011;38759;53.396;6.722;2023-07-20T12:58:25;3.67;;;1.05;;
52894;SDS011;38759;53.396;6.722;2023-07-20T13:00:51;4.85;;;0.98;;
52894;SDS011;38759;53.396;6.722;2023-07-20T13:03:16;3.53;;;0.88;;
52894;SDS011;38759;53.396;6.722;2023-07-20T13:05:44;6.03;;;1.10;;
52894;SDS011;38759;53.396;6.722;2023-07-20T13:08:13;8.60;;;0.80;;
52894;SDS011;38759;53.396;6.722;2023-07-20T13:10:40;2.67;;;0.90;;
52894;SDS011;38759;53.396;6.722;2023-07-20T13:13:06;6.25;;;1.10;;
52894;SDS011;38759;53.396;6.722;2023-07-20T13:15:32;3.03;;;0.70;;
52894;SDS011;38759;53.396;6.722;2023-07-20T13:18:05;3.40;;;1.08;;
52894;SDS011;38759;53.396;6.722;2023-07-20T13:20:31;2.95;;;0.80;;
52894;SDS011;38759;53.396;6.722;2023-07-20T13:22:57;2.47;;;0.73;;
52894;SDS011;38759;53.396;6.722;2023-07-20T13:25:22;2.22;;;1.02;;
52894;SDS011;38759;53.396;6.722;2023-07-20T13:27:49;2.05;;;0.90;;
52894;SDS011;38759;53.396;6.722;2023-07-20T13:30:14;3.58;;;1.10;;
52894;SDS011;38759;53.396;6.722;2023-07-20T13:32:45;1.30;;;0.70;;
52894;SDS011;38759;53.396;6.722;2023-07-20T13:35:11;2.63;;;1.00;;
52894;SDS011;38759;53.396;6.722;2023-07-20T13:37:37;3.05;;;1.02;;
52894;SDS011;38759;53.396;6.722;2023-07-20T13:40:03;3.00;;;0.95;;
52894;SDS011;38759;53.396;6.722;2023-07-20T13:42:33;4.43;;;1.00;;
52894;SDS011;38759;53.396;6.722;2023-07-20T13:44:59;9.75;;;1.00;;
52894;SDS011;38759;53.396;6.722;2023-07-20T13:47:25;2.90;;;0.88;;
52894;SDS011;38759;53.396;6.722;2023-07-20T13:49:51;2.65;;;1.00;;
52894;SDS011;38759;53.396;6.722;2023-07-20T13:52:17;2.50;;;0.80;;
52894;SDS011;38759;53.396;6.722;2023-07-20T13:54:43;1.98;;;0.80;;
52894;SDS011;38759;53.396;6.722;2023-07-20T13:57:09;1.95;;;0.80;;
52894;SDS011;38759;53.396;6.722;2023-07-20T13:59:34;5.05;;;1.25;;
52894;SDS011;38759;53.396;6.722;2023-07-20T14:02:00;3.83;;;0.90;;
52894;SDS011;38759;53.396;6.722;2023-07-20T14:04:25;5.60;;;1.05;;
52894;SDS011;38759;53.396;6.722;2023-07-20T14:06:51;3.63;;;0.90;;
52894;SDS011;38759;53.396;6.722;2023-07-20T14:09:17;4.38;;;1.00;;
52894;SDS011;38759;53.396;6.722;2023-07-20T14:11:42;4.30;;;1.10;;
52894;SDS011;38759;53.396;6.722;2023-07-20T14:14:08;2.92;;;1.02;;
52894;SDS011;38759;53.396;6.722;2023-07-20T14:16:34;2.35;;;0.82;;
52894;SDS011;38759;53.396;6.722;2023-07-20T14:19:00;5.28;;;0.93;;
52894;SDS011;38759;53.396;6.722;2023-07-20T14:21:26;2.67;;;0.93;;
52894;SDS011;38759;53.396;6.722;2023-07-20T14:23:52;1.77;;;0.90;;
52894;SDS011;38759;53.396;6.722;2023-07-20T14:26:18;1.55;;;0.70;;
52894;SDS011;38759;53.396;6.722;2023-07-20T14:28:44;4.22;;;0.80;;
52894;SDS011;38759;53.396;6.722;2023-07-20T14:31:10;3.50;;;1.17;;
52894;SDS011;38759;53.396;6.722;2023-07-20T14:33:36;4.78;;;0.77;;
52894;SDS011;38759;53.396;6.722;2023-07-20T14:36:02;2.80;;;0.98;;
52894;SDS011;38759;53.396;6.722;2023-07-20T14:38:28;5.63;;;1.00;;
52894;SDS011;38759;53.396;6.722;2023-07-20T14:40:55;1.83;;;0.90;;
52894;SDS011;38759;53.396;6.722;2023-07-20T14:43:21;2.42;;;1.00;;
52894;SDS011;38759;53.396;6.722;2023-07-20T14:45:47;2.88;;;0.93;;
52894;SDS011;38759;53.396;6.722;2023-07-20T14:48:12;1.83;;;1.02;;
52894;SDS011;38759;53.396;6.722;2023-07-20T14:50:38;6.53;;;0.80;;
52894;SDS011;38759;53.396;6.722;2023-07-20T14:53:04;1.55;;;0.85;;
52894;SDS011;38759;53.396;6.722;2023-07-20T14:55:29;5.40;;;1.17;;
52894;SDS011;38759;53.396;6.722;2023-07-20T14:57:55;5.38;;;1.10;;
52894;SDS011;38759;53.396;6.722;2023-07-20T15:00:21;3.50;;;1.00;;
52894;SDS011;38759;53.396;6.722;2023-07-20T15:02:47;3.35;;;1.20;;
52894;SDS011;38759;53.396;6.722;2023-07-20T15:05:14;4.28;;;1.10;;
52894;SDS011;38759;53.396;6.722;2023-07-20T15:07:46;4.70;;;1.10;;